KMUO/MUO METAR and TAF weather

Enter ICAO airport designator
Station Type Date Time Source
KMUO METAR 2019/12/06 01:58 UTC NOAA

KMUO 060158Z AUTO 10004KT 10SM OVC018 01/ A3024 RMK AO2 CIG 017 RWY30 SLP261 $


Station Type Date Time Source
KMUO Decoded METAR 2019/12/06 01:58 UTC NOAA

Mountain Home Air Force Base, ID, United States (KMUO) 43-03N 115-52W
Dec 05, 2019 - 08:58 PM EST / 2019.12.06 0158 UTC
Wind: from the E (100 degrees) at 5 MPH (4 KT):0
Visibility: 10 mile(s):0
Sky conditions: overcast
Temperature: 33 F (1 C)
Windchill: 28 F (-2 C):1
Pressure (altimeter): 30.24 in. Hg (1024 hPa)
ob: KMUO 060158Z AUTO 10004KT 10SM OVC018 01/ A3024 RMK AO2 CIG 017 RWY30 SLP261
cycle: 2

Station Type Date Time Source
KMUO TAF 2019/12/05 21:32 UTC NOAA

TAF
AMD KMUO 052125Z 0521/0624 VRB06KT 4000 BR BKN015 620208 QNH3014INS
BECMG 0523/0524 12006KT 4800 BR SCT015 BKN030 BKN190 620307 QNH3011INS
BECMG 0602/0603 VRB06KT 3200 BR SCT006 BKN020 BKN060 620307 QNH3010INS
BECMG 0612/0613 12009KT 2400 BR FEW020 SCT070 BKN100 610705 QNH3011INS
BECMG 0618/0619 12010G15KT 8000 BR FEW010 SCT030 BKN120 QNH3012INS TX04/0622Z TNM04/0614Z

Example: see airport list